createdAt,value
2017-12-12T00:00:30.756Z,981.37
2017-12-12T00:01:11.352Z,981.38
2017-12-12T00:01:51.921Z,981.39
2017-12-12T00:02:32.521Z,981.39
2017-12-12T00:03:13.102Z,981.4
2017-12-12T00:03:53.780Z,981.4
2017-12-12T00:04:34.316Z,981.4
2017-12-12T00:05:14.906Z,981.45
2017-12-12T00:05:55.476Z,981.44
2017-12-12T00:06:36.051Z,981.46
2017-12-12T00:07:16.637Z,981.43
2017-12-12T00:07:57.233Z,981.42
2017-12-12T00:08:37.781Z,981.43
2017-12-12T00:09:18.380Z,981.47
2017-12-12T00:09:58.975Z,981.49
2017-12-12T00:10:39.571Z,981.55
2017-12-12T00:11:20.146Z,981.57
2017-12-12T00:12:00.718Z,981.53
2017-12-12T00:12:41.287Z,981.55
2017-12-12T00:13:21.863Z,981.56
2017-12-12T00:14:02.420Z,981.58
2017-12-12T00:14:42.986Z,981.61
2017-12-12T00:15:23.570Z,981.62
2017-12-12T00:16:04.134Z,981.66
2017-12-12T00:16:44.715Z,981.64
2017-12-12T00:17:25.304Z,981.63
2017-12-12T00:18:05.858Z,981.63
2017-12-12T00:18:46.491Z,981.61
2017-12-12T00:19:26.996Z,981.59
2017-12-12T00:20:07.568Z,981.62
2017-12-12T00:20:48.169Z,981.64
2017-12-12T00:21:28.753Z,981.71
2017-12-12T00:22:09.321Z,981.68
2017-12-12T00:22:49.933Z,981.66
2017-12-12T00:23:30.526Z,981.61
2017-12-12T00:24:11.093Z,981.62
2017-12-12T00:24:51.687Z,981.56
2017-12-12T00:25:32.329Z,981.58
2017-12-12T00:26:12.902Z,981.55
2017-12-12T00:26:53.490Z,981.58
2017-12-12T00:27:34.045Z,981.53
2017-12-12T00:28:14.651Z,981.57
2017-12-12T00:28:55.235Z,981.63
2017-12-12T00:29:35.792Z,981.63
2017-12-12T00:30:16.388Z,981.66
2017-12-12T00:30:56.960Z,981.66
2017-12-12T00:31:37.523Z,981.68
2017-12-12T00:32:18.141Z,981.73
2017-12-12T00:32:58.710Z,981.75
2017-12-12T00:33:39.273Z,981.8
2017-12-12T00:34:19.855Z,981.79
2017-12-12T00:35:00.406Z,981.79
2017-12-12T00:35:40.975Z,981.82
2017-12-12T00:36:21.548Z,981.83
2017-12-12T00:37:02.132Z,981.83
2017-12-12T00:37:42.721Z,981.81
2017-12-12T00:38:23.291Z,981.8
2017-12-12T00:39:03.883Z,981.82
2017-12-12T00:39:44.443Z,981.87
2017-12-12T00:40:25.015Z,981.83
2017-12-12T00:41:05.734Z,981.8
2017-12-12T00:41:46.325Z,981.83
2017-12-12T00:42:26.900Z,981.77
2017-12-12T00:43:07.456Z,981.81
2017-12-12T00:43:48.065Z,981.8
2017-12-12T00:44:28.657Z,981.87
2017-12-12T00:45:09.232Z,981.84
2017-12-12T00:45:49.795Z,981.84
2017-12-12T00:46:30.371Z,981.8
2017-12-12T00:47:10.940Z,981.81
2017-12-12T00:47:51.514Z,981.81
2017-12-12T00:48:32.093Z,981.82
2017-12-12T00:49:12.677Z,981.77
2017-12-12T00:49:53.238Z,981.78
2017-12-12T00:50:33.800Z,981.8
2017-12-12T00:51:14.401Z,981.82
2017-12-12T00:51:54.982Z,981.83
2017-12-12T00:52:35.541Z,981.85
2017-12-12T00:53:16.139Z,981.88
2017-12-12T00:53:56.708Z,981.89
2017-12-12T00:54:37.288Z,981.92
2017-12-12T00:55:17.843Z,981.96
2017-12-12T00:55:58.417Z,981.99
2017-12-12T00:56:38.989Z,982.02
2017-12-12T00:57:19.552Z,982.02
2017-12-12T00:58:00.132Z,982.02
2017-12-12T00:58:40.705Z,982.02
2017-12-12T00:59:21.257Z,981.96
2017-12-12T01:00:01.848Z,981.96
2017-12-12T01:00:42.433Z,981.88
2017-12-12T01:01:23.009Z,981.86
2017-12-12T01:02:03.642Z,981.87
2017-12-12T01:02:44.164Z,981.86
2017-12-12T01:03:24.764Z,981.87
2017-12-12T01:04:05.328Z,981.86
2017-12-12T01:04:45.913Z,981.88
2017-12-12T01:05:26.498Z,981.93
2017-12-12T01:06:07.066Z,981.93
2017-12-12T01:06:47.682Z,981.97
2017-12-12T01:07:28.335Z,981.93
2017-12-12T01:08:08.905Z,981.96
2017-12-12T01:08:49.479Z,981.98
2017-12-12T01:09:30.076Z,982
2017-12-12T01:10:10.621Z,981.97
2017-12-12T01:10:51.188Z,981.97
2017-12-12T01:11:31.777Z,981.93
2017-12-12T01:12:12.362Z,981.98
2017-12-12T01:12:52.977Z,982
2017-12-12T01:13:33.560Z,981.99
2017-12-12T01:14:14.134Z,982.01
2017-12-12T01:14:54.732Z,982.05
2017-12-12T01:15:35.326Z,982.03
2017-12-12T01:16:15.916Z,982.05
2017-12-12T01:16:56.504Z,982
2017-12-12T01:17:37.071Z,981.99
2017-12-12T01:18:17.672Z,982.01
2017-12-12T01:18:58.267Z,982
2017-12-12T01:19:38.828Z,981.98
2017-12-12T01:20:19.388Z,982
2017-12-12T01:20:59.968Z,982.02
2017-12-12T01:21:40.535Z,981.99
2017-12-12T01:22:21.098Z,982
2017-12-12T01:23:01.682Z,982.04
2017-12-12T01:23:42.265Z,982.01
2017-12-12T01:24:22.854Z,982.07
2017-12-12T01:25:03.446Z,982.08
2017-12-12T01:25:44.017Z,982.04
2017-12-12T01:26:24.574Z,982.06
2017-12-12T01:27:05.140Z,982.05
2017-12-12T01:27:45.704Z,982.05
2017-12-12T01:28:26.289Z,982.06
2017-12-12T01:29:06.886Z,982.05
2017-12-12T01:29:47.452Z,982.03
2017-12-12T01:30:28.076Z,982.06
2017-12-12T01:31:08.605Z,982.1
2017-12-12T01:31:49.178Z,982.03
2017-12-12T01:32:29.755Z,982.08
2017-12-12T01:33:10.354Z,982.13
2017-12-12T01:33:50.905Z,982.13
2017-12-12T01:34:31.497Z,982.1
2017-12-12T01:35:12.101Z,982.11
2017-12-12T01:35:52.665Z,982.1
2017-12-12T01:36:33.256Z,982.09
2017-12-12T01:37:13.851Z,982.11
2017-12-12T01:37:54.439Z,982
2017-12-12T01:38:35.007Z,982.04
2017-12-12T01:39:15.564Z,982.04
2017-12-12T01:39:56.162Z,982.02
2017-12-12T01:40:36.716Z,981.96
2017-12-12T01:41:17.299Z,981.94
2017-12-12T01:41:57.927Z,981.92
2017-12-12T01:42:38.448Z,981.99
2017-12-12T01:43:19.017Z,981.97
2017-12-12T01:43:59.616Z,981.97
2017-12-12T01:44:40.176Z,982
2017-12-12T01:45:20.775Z,981.94
2017-12-12T01:46:01.342Z,981.95
2017-12-12T01:46:41.919Z,981.96
2017-12-12T01:47:22.476Z,982.02
2017-12-12T01:48:03.069Z,982
2017-12-12T01:48:43.637Z,981.96
2017-12-12T01:49:24.231Z,981.98
2017-12-12T01:50:04.816Z,981.96
2017-12-12T01:50:45.382Z,981.99
2017-12-12T01:51:25.948Z,982.07
2017-12-12T01:52:06.531Z,982.01
2017-12-12T01:52:47.093Z,982.04
2017-12-12T01:53:27.670Z,982.09
2017-12-12T01:54:08.311Z,982.12
2017-12-12T01:54:48.908Z,982.07
2017-12-12T01:55:29.495Z,982.05
2017-12-12T01:56:10.045Z,982.06
2017-12-12T01:56:50.626Z,982.05
2017-12-12T01:57:31.207Z,981.99
2017-12-12T01:58:11.772Z,981.98
2017-12-12T01:58:52.340Z,982
2017-12-12T01:59:32.909Z,981.96
2017-12-12T02:00:13.513Z,982.03
2017-12-12T02:00:54.031Z,982.01
2017-12-12T02:01:34.593Z,982.01
2017-12-12T02:02:15.227Z,982
2017-12-12T02:02:55.767Z,982.06
2017-12-12T02:03:36.328Z,982.01
2017-12-12T02:04:16.900Z,982.07
2017-12-12T02:04:57.478Z,982.02
2017-12-12T02:05:38.048Z,982.06
2017-12-12T02:06:18.623Z,982.07
2017-12-12T02:06:59.231Z,982.06
2017-12-12T02:07:39.804Z,982.01
2017-12-12T02:08:20.414Z,982.01
2017-12-12T02:09:01.051Z,981.99
2017-12-12T02:09:41.657Z,982.01
2017-12-12T02:10:22.227Z,982.04
2017-12-12T02:11:02.797Z,982
2017-12-12T02:11:43.385Z,982.05
2017-12-12T02:12:23.971Z,982.07
2017-12-12T02:13:04.550Z,982.05
2017-12-12T02:13:45.097Z,982.08
2017-12-12T02:14:25.657Z,982.02
2017-12-12T02:15:06.235Z,982.07
2017-12-12T02:15:46.800Z,982.1
2017-12-12T02:16:27.380Z,982.06
2017-12-12T02:17:07.942Z,982.1
2017-12-12T02:17:48.546Z,982.06
2017-12-12T02:18:29.148Z,982.1
2017-12-12T02:19:09.731Z,982.15
2017-12-12T02:19:50.331Z,982.11
2017-12-12T02:20:30.982Z,982.13
2017-12-12T02:21:11.566Z,982.07
2017-12-12T02:21:52.195Z,982.09
2017-12-12T02:22:32.767Z,982.02
2017-12-12T02:23:13.329Z,982.01
2017-12-12T02:23:53.914Z,982
2017-12-12T02:24:34.499Z,982.07
2017-12-12T02:25:15.045Z,982.09
2017-12-12T02:25:55.625Z,982.08
2017-12-12T02:26:36.181Z,982.12
2017-12-12T02:27:16.770Z,982.11
2017-12-12T02:27:57.334Z,982.13
2017-12-12T02:28:37.927Z,982.14
2017-12-12T02:29:18.554Z,982.14
2017-12-12T02:29:59.136Z,982.14
2017-12-12T02:30:39.762Z,982.12
2017-12-12T02:31:20.326Z,982.11
2017-12-12T02:32:00.918Z,982.17
2017-12-12T02:32:41.554Z,982.15
2017-12-12T02:33:22.152Z,982.06
2017-12-12T02:34:02.714Z,982.13
2017-12-12T02:34:43.296Z,982.16
2017-12-12T02:35:23.939Z,982.14
2017-12-12T02:36:04.464Z,982.13
2017-12-12T02:36:45.018Z,982.14
2017-12-12T02:37:25.602Z,982.11
2017-12-12T02:38:06.175Z,982.12
2017-12-12T02:38:46.752Z,982.18
2017-12-12T02:39:27.316Z,982.15
2017-12-12T02:40:07.882Z,982.23
2017-12-12T02:40:48.424Z,982.21
2017-12-12T02:41:28.987Z,982.19
2017-12-12T02:42:09.564Z,982.16
2017-12-12T02:42:50.181Z,982.11
2017-12-12T02:43:30.744Z,982.18
2017-12-12T02:44:11.337Z,982.24
2017-12-12T02:44:51.921Z,982.31
2017-12-12T02:45:32.503Z,982.33
2017-12-12T02:46:13.095Z,982.33
2017-12-12T02:46:53.679Z,982.34
2017-12-12T02:47:34.257Z,982.32
2017-12-12T02:48:14.824Z,982.36
2017-12-12T02:48:55.398Z,982.34
2017-12-12T02:49:35.970Z,982.36
2017-12-12T02:50:16.535Z,982.37
2017-12-12T02:50:57.116Z,982.37
2017-12-12T02:51:37.697Z,982.41
2017-12-12T02:52:18.284Z,982.41
2017-12-12T02:52:58.867Z,982.39
2017-12-12T02:53:39.424Z,982.36
2017-12-12T02:54:20.004Z,982.33
2017-12-12T02:55:00.584Z,982.36
2017-12-12T02:55:41.149Z,982.41
2017-12-12T02:56:21.693Z,982.38
2017-12-12T02:57:02.251Z,982.38
2017-12-12T02:57:42.827Z,982.38
2017-12-12T02:58:23.402Z,982.34
2017-12-12T02:59:03.956Z,982.32
2017-12-12T02:59:44.541Z,982.33
2017-12-12T03:00:25.105Z,982.36
2017-12-12T03:01:05.661Z,982.39
2017-12-12T03:01:46.237Z,982.37
2017-12-12T03:02:26.814Z,982.38
2017-12-12T03:03:07.381Z,982.42
2017-12-12T03:03:47.996Z,982.41
2017-12-12T03:04:28.534Z,982.38
2017-12-12T03:05:09.114Z,982.38
2017-12-12T03:05:49.713Z,982.36
2017-12-12T03:06:30.326Z,982.33
2017-12-12T03:07:10.837Z,982.4
2017-12-12T03:07:51.484Z,982.29
2017-12-12T03:08:32.017Z,982.33
2017-12-12T03:09:12.613Z,982.33
2017-12-12T03:09:53.186Z,982.35
2017-12-12T03:10:33.773Z,982.3
2017-12-12T03:11:14.364Z,982.26
2017-12-12T03:11:54.928Z,982.26
2017-12-12T03:12:35.499Z,982.23
2017-12-12T03:13:16.070Z,982.26
2017-12-12T03:13:56.632Z,982.23
2017-12-12T03:14:37.205Z,982.29
2017-12-12T03:15:17.784Z,982.22
2017-12-12T03:15:58.356Z,982.29
2017-12-12T03:16:38.926Z,982.25
2017-12-12T03:17:19.502Z,982.3
2017-12-12T03:18:00.079Z,982.36
2017-12-12T03:18:40.666Z,982.37
2017-12-12T03:19:21.254Z,982.4
2017-12-12T03:20:01.823Z,982.39
2017-12-12T03:20:42.425Z,982.39
2017-12-12T03:21:23.025Z,982.37
2017-12-12T03:22:03.596Z,982.39
2017-12-12T03:22:44.176Z,982.4
2017-12-12T03:23:24.740Z,982.4
2017-12-12T03:24:05.311Z,982.39
2017-12-12T03:24:45.878Z,982.36
2017-12-12T03:25:26.451Z,982.34
2017-12-12T03:26:07.005Z,982.37
2017-12-12T03:26:47.674Z,982.35
2017-12-12T03:27:28.276Z,982.39
2017-12-12T03:28:08.886Z,982.37
2017-12-12T03:28:49.473Z,982.4
2017-12-12T03:29:30.031Z,982.42
2017-12-12T03:30:10.608Z,982.35
2017-12-12T03:30:51.176Z,982.42
2017-12-12T03:31:31.750Z,982.4
2017-12-12T03:32:12.310Z,982.46
2017-12-12T03:32:52.879Z,982.51
2017-12-12T03:33:33.457Z,982.47
2017-12-12T03:34:14.027Z,982.5
2017-12-12T03:34:54.610Z,982.54
2017-12-12T03:35:35.180Z,982.55
2017-12-12T03:36:15.734Z,982.57
2017-12-12T03:36:56.300Z,982.58
2017-12-12T03:37:36.880Z,982.59
2017-12-12T03:38:17.451Z,982.61
2017-12-12T03:38:58.053Z,982.6
2017-12-12T03:39:38.629Z,982.63
2017-12-12T03:40:19.182Z,982.7
2017-12-12T03:40:59.747Z,982.7
2017-12-12T03:41:40.313Z,982.74
2017-12-12T03:42:20.894Z,982.7
2017-12-12T03:43:01.521Z,982.71
2017-12-12T03:43:42.116Z,982.7
2017-12-12T03:44:22.695Z,982.72
2017-12-12T03:45:03.255Z,982.77
2017-12-12T03:45:43.846Z,982.68
2017-12-12T03:46:24.403Z,982.75
2017-12-12T03:47:04.962Z,982.73
2017-12-12T03:47:45.533Z,982.72
2017-12-12T03:48:26.114Z,982.75
2017-12-12T03:49:06.650Z,982.73
2017-12-12T03:49:47.230Z,982.74
2017-12-12T03:50:27.788Z,982.75
2017-12-12T03:51:08.412Z,982.8
2017-12-12T03:51:49.021Z,982.74
2017-12-12T03:52:29.606Z,982.73
2017-12-12T03:53:10.187Z,982.75
2017-12-12T03:53:50.760Z,982.77
2017-12-12T03:54:31.321Z,982.79
2017-12-12T03:55:11.875Z,982.71
2017-12-12T03:55:52.460Z,982.79
2017-12-12T03:56:33.032Z,982.76
2017-12-12T03:57:13.624Z,982.82
2017-12-12T03:57:54.238Z,982.82
2017-12-12T03:58:34.801Z,982.87
2017-12-12T03:59:15.372Z,982.87
2017-12-12T03:59:55.962Z,982.86
2017-12-12T04:00:36.538Z,982.86
2017-12-12T04:01:17.123Z,982.88
2017-12-12T04:01:57.690Z,982.82
2017-12-12T04:02:38.267Z,982.78
2017-12-12T04:03:18.916Z,982.81
2017-12-12T04:03:59.431Z,982.77
2017-12-12T04:04:40.038Z,982.74
2017-12-12T04:05:20.732Z,982.78
2017-12-12T04:06:01.299Z,982.75
2017-12-12T04:06:41.877Z,982.73
2017-12-12T04:07:22.570Z,982.75
2017-12-12T04:08:03.154Z,982.75
2017-12-12T04:08:43.731Z,982.76
2017-12-12T04:09:24.301Z,982.76
2017-12-12T04:10:04.863Z,982.76
2017-12-12T04:10:45.411Z,982.75
2017-12-12T04:11:25.993Z,982.76
2017-12-12T04:12:06.552Z,982.79
2017-12-12T04:12:47.126Z,982.78
2017-12-12T04:13:27.709Z,982.79
2017-12-12T04:14:08.298Z,982.79
2017-12-12T04:14:48.899Z,982.76
2017-12-12T04:15:29.475Z,982.84
2017-12-12T04:16:10.080Z,982.86
2017-12-12T04:16:50.659Z,982.96
2017-12-12T04:17:31.267Z,983.02
2017-12-12T04:18:11.837Z,983.11
2017-12-12T04:18:52.436Z,983.13
2017-12-12T04:19:33.059Z,983.2
2017-12-12T04:20:13.640Z,983.18
2017-12-12T04:20:54.195Z,983.2
2017-12-12T04:21:34.795Z,983.17
2017-12-12T04:22:15.360Z,983.2
2017-12-12T04:22:55.930Z,983.21
2017-12-12T04:23:36.511Z,983.18
2017-12-12T04:24:17.077Z,983.23
2017-12-12T04:24:57.706Z,983.24
2017-12-12T04:25:38.301Z,983.24
2017-12-12T04:26:18.905Z,983.2
2017-12-12T04:26:59.492Z,983.24
2017-12-12T04:27:40.059Z,983.29
2017-12-12T04:28:20.640Z,983.29
2017-12-12T04:29:01.220Z,983.31
2017-12-12T04:29:41.817Z,983.29
2017-12-12T04:30:22.396Z,983.26
2017-12-12T04:31:03.050Z,983.27
2017-12-12T04:31:43.631Z,983.23
2017-12-12T04:32:24.219Z,983.3
2017-12-12T04:33:04.823Z,983.28
2017-12-12T04:33:45.388Z,983.3
2017-12-12T04:34:25.977Z,983.26
2017-12-12T04:35:06.558Z,983.28
2017-12-12T04:35:47.138Z,983.3
2017-12-12T04:36:27.696Z,983.3
2017-12-12T04:37:08.307Z,983.35
2017-12-12T04:37:48.893Z,983.36
2017-12-12T04:38:29.479Z,983.4
2017-12-12T04:39:10.067Z,983.42
2017-12-12T04:39:50.667Z,983.44
2017-12-12T04:40:31.219Z,983.46
2017-12-12T04:41:11.783Z,983.5
2017-12-12T04:41:52.340Z,983.5
2017-12-12T04:42:32.956Z,983.54
2017-12-12T04:43:13.572Z,983.51
2017-12-12T04:43:54.201Z,983.52
2017-12-12T04:44:34.781Z,983.55
2017-12-12T04:45:15.398Z,983.52
2017-12-12T04:45:55.985Z,983.54
2017-12-12T04:46:36.580Z,983.53
2017-12-12T04:47:17.143Z,983.55
2017-12-12T04:47:57.735Z,983.57
2017-12-12T04:48:38.328Z,983.52
2017-12-12T04:49:18.987Z,983.59
2017-12-12T04:49:59.579Z,983.49
2017-12-12T04:50:40.155Z,983.52
2017-12-12T04:51:20.781Z,983.5
2017-12-12T04:52:01.363Z,983.56
2017-12-12T04:52:41.962Z,983.58
2017-12-12T04:53:22.519Z,983.63
2017-12-12T04:54:03.101Z,983.62
2017-12-12T04:54:43.694Z,983.64
2017-12-12T04:55:24.275Z,983.66
2017-12-12T04:56:04.855Z,983.71
2017-12-12T04:56:45.423Z,983.77
2017-12-12T04:57:26.000Z,983.76
2017-12-12T04:58:06.571Z,983.73
2017-12-12T04:58:47.134Z,983.75
2017-12-12T04:59:27.726Z,983.76
2017-12-12T05:00:08.324Z,983.76
2017-12-12T05:00:48.894Z,983.8
2017-12-12T05:01:29.468Z,983.84
2017-12-12T05:02:10.030Z,983.81
2017-12-12T05:02:50.625Z,983.84
2017-12-12T05:03:31.181Z,983.79
2017-12-12T05:04:11.738Z,983.82
2017-12-12T05:04:52.311Z,983.82
2017-12-12T05:05:32.932Z,983.87
2017-12-12T05:06:13.510Z,983.85
2017-12-12T05:06:54.100Z,983.85
2017-12-12T05:07:34.670Z,983.89
2017-12-12T05:08:15.262Z,983.89
2017-12-12T05:08:55.884Z,983.88
2017-12-12T05:09:36.467Z,983.93
2017-12-12T05:10:17.032Z,983.95
2017-12-12T05:10:57.655Z,983.98
2017-12-12T05:11:38.237Z,983.93
2017-12-12T05:12:18.831Z,983.92
2017-12-12T05:12:59.410Z,983.96
2017-12-12T05:13:39.982Z,983.94
2017-12-12T05:14:20.554Z,983.94
2017-12-12T05:15:01.157Z,983.96
2017-12-12T05:15:41.722Z,983.95
2017-12-12T05:16:22.313Z,984
2017-12-12T05:17:02.920Z,984.04
2017-12-12T05:17:43.496Z,984.04
2017-12-12T05:18:24.096Z,984.03
2017-12-12T05:19:04.653Z,984.02
2017-12-12T05:19:45.238Z,984
2017-12-12T05:20:25.893Z,984.01
2017-12-12T05:21:06.473Z,984.01
2017-12-12T05:21:47.101Z,984.05
2017-12-12T05:22:27.698Z,984.03
2017-12-12T05:23:08.382Z,984.06
2017-12-12T05:23:48.953Z,984.1
2017-12-12T05:24:29.605Z,984.1
2017-12-12T05:25:10.167Z,984.16
2017-12-12T05:25:50.766Z,984.16
2017-12-12T05:26:31.384Z,984.13
2017-12-12T05:27:12.077Z,984.17
2017-12-12T05:27:52.688Z,984.19
2017-12-12T05:28:33.298Z,984.19
2017-12-12T05:29:13.895Z,984.14
2017-12-12T05:29:54.478Z,984.2
2017-12-12T05:30:35.095Z,984.25
2017-12-12T05:31:15.699Z,984.22
2017-12-12T05:31:56.277Z,984.2
2017-12-12T05:32:36.848Z,984.21
2017-12-12T05:33:17.426Z,984.21
2017-12-12T05:33:58.029Z,984.18
2017-12-12T05:34:38.576Z,984.26
2017-12-12T05:35:19.147Z,984.26
2017-12-12T05:36:06.984Z,984.32
2017-12-12T05:37:07.679Z,984.35
2017-12-12T05:37:51.454Z,984.36
2017-12-12T05:38:32.022Z,984.38
2017-12-12T05:39:12.724Z,984.39
2017-12-12T05:39:53.322Z,984.43
2017-12-12T05:40:33.906Z,984.33
2017-12-12T05:41:14.475Z,984.34
2017-12-12T05:41:55.052Z,984.32
2017-12-12T05:42:35.624Z,984.35
2017-12-12T05:43:16.191Z,984.35
2017-12-12T05:43:56.807Z,984.42
2017-12-12T05:44:37.386Z,984.39
2017-12-12T05:45:17.973Z,984.42
2017-12-12T05:45:58.561Z,984.39
2017-12-12T05:46:39.124Z,984.4
2017-12-12T05:47:19.825Z,984.41
2017-12-12T05:48:00.437Z,984.43
2017-12-12T05:48:41.002Z,984.46
2017-12-12T05:49:21.615Z,984.44
2017-12-12T05:50:02.255Z,984.49
2017-12-12T05:50:42.794Z,984.49
2017-12-12T05:51:23.373Z,984.52
2017-12-12T05:52:04.000Z,984.56
2017-12-12T05:52:44.561Z,984.58
2017-12-12T05:53:25.185Z,984.56
2017-12-12T05:54:05.871Z,984.6
2017-12-12T05:54:46.487Z,984.6
2017-12-12T05:55:27.085Z,984.67
2017-12-12T05:56:07.663Z,984.64
2017-12-12T05:56:48.254Z,984.73
2017-12-12T05:57:28.844Z,984.7
2017-12-12T05:58:09.736Z,984.68
2017-12-12T05:58:50.825Z,984.68
2017-12-12T05:59:31.852Z,984.71
2017-12-12T06:00:13.216Z,984.63
2017-12-12T06:00:53.960Z,984.67
2017-12-12T06:01:34.579Z,984.73
2017-12-12T06:02:15.205Z,984.72
2017-12-12T06:02:55.866Z,984.68
2017-12-12T06:03:37.027Z,984.68
2017-12-12T06:04:17.545Z,984.68
2017-12-12T06:04:58.191Z,984.69
2017-12-12T06:05:38.846Z,984.7
2017-12-12T06:06:19.461Z,984.73
2017-12-12T06:07:00.037Z,984.79
2017-12-12T06:07:40.617Z,984.83
2017-12-12T06:08:21.297Z,984.84
2017-12-12T06:09:01.862Z,984.86
2017-12-12T06:09:42.457Z,984.85
2017-12-12T06:10:23.052Z,984.8
2017-12-12T06:11:03.658Z,984.82
2017-12-12T06:11:44.302Z,984.88
2017-12-12T06:12:24.902Z,984.88
2017-12-12T06:13:05.491Z,984.95
2017-12-12T06:13:46.168Z,984.98
2017-12-12T06:14:26.763Z,984.99
2017-12-12T06:15:07.356Z,985.02
2017-12-12T06:15:47.998Z,984.97
2017-12-12T06:16:28.617Z,985.02
2017-12-12T06:17:09.226Z,985.04
2017-12-12T06:17:49.812Z,985
2017-12-12T06:18:30.409Z,985.02
2017-12-12T06:19:11.032Z,985.03
2017-12-12T06:19:51.612Z,985.08
2017-12-12T06:20:32.218Z,985.04
2017-12-12T06:21:12.832Z,985.09
2017-12-12T06:21:53.399Z,985.08
2017-12-12T06:22:34.009Z,985.16
2017-12-12T06:23:14.565Z,985.14
2017-12-12T06:23:55.145Z,985.07
2017-12-12T06:24:36.573Z,985.11
2017-12-12T06:25:17.413Z,985.11
2017-12-12T06:25:57.958Z,985.14
2017-12-12T06:26:38.542Z,985.09
2017-12-12T06:27:19.120Z,985.11
2017-12-12T06:27:59.699Z,985.12
2017-12-12T06:28:40.296Z,985.18
2017-12-12T06:29:20.909Z,985.22
2017-12-12T06:30:01.501Z,985.21
2017-12-12T06:30:42.316Z,985.26
2017-12-12T06:31:22.903Z,985.32
2017-12-12T06:32:03.468Z,985.32
2017-12-12T06:32:44.048Z,985.37
2017-12-12T06:33:24.618Z,985.41
2017-12-12T06:34:05.200Z,985.36
2017-12-12T06:34:45.782Z,985.48
2017-12-12T06:35:26.355Z,985.48
2017-12-12T06:36:06.930Z,985.52
2017-12-12T06:36:47.530Z,985.56
2017-12-12T06:37:28.102Z,985.5
2017-12-12T06:38:08.717Z,985.58
2017-12-12T06:38:49.317Z,985.58
2017-12-12T06:39:29.896Z,985.54
2017-12-12T06:40:10.462Z,985.61
2017-12-12T06:40:51.038Z,985.62
2017-12-12T06:41:31.602Z,985.65
2017-12-12T06:42:12.162Z,985.69
2017-12-12T06:42:52.737Z,985.67
2017-12-12T06:43:33.344Z,985.73
2017-12-12T06:44:13.912Z,985.71
2017-12-12T06:44:54.512Z,985.71
2017-12-12T06:45:35.090Z,985.71
2017-12-12T06:46:15.662Z,985.75
2017-12-12T06:46:56.248Z,985.76
2017-12-12T06:47:36.849Z,985.79
2017-12-12T06:48:17.440Z,985.81
2017-12-12T06:48:58.018Z,985.76
2017-12-12T06:49:38.627Z,985.77
2017-12-12T06:50:19.172Z,985.81
2017-12-12T06:50:59.757Z,985.8
2017-12-12T06:51:40.327Z,985.87
2017-12-12T06:52:20.909Z,985.8
2017-12-12T06:53:01.517Z,985.86
2017-12-12T06:53:42.109Z,985.89
2017-12-12T06:54:22.692Z,985.9
2017-12-12T06:55:03.259Z,985.95
2017-12-12T06:55:43.818Z,985.88
2017-12-12T06:56:24.397Z,985.99
2017-12-12T06:57:04.954Z,986.04
2017-12-12T06:57:45.567Z,985.98
2017-12-12T06:58:26.211Z,985.99
2017-12-12T06:59:06.820Z,986.04
2017-12-12T06:59:47.353Z,986.04
2017-12-12T07:00:27.926Z,986.08
2017-12-12T07:01:08.595Z,986.16
2017-12-12T07:01:49.255Z,986.22
2017-12-12T07:02:29.830Z,986.18
2017-12-12T07:03:10.420Z,986.23
2017-12-12T07:03:51.009Z,986.25
2017-12-12T07:04:31.573Z,986.33
2017-12-12T07:05:12.143Z,986.38
2017-12-12T07:05:52.735Z,986.29
2017-12-12T07:06:33.314Z,986.4
2017-12-12T07:07:13.879Z,986.33
2017-12-12T07:07:54.450Z,986.42
2017-12-12T07:08:35.059Z,986.4
2017-12-12T07:09:15.619Z,986.52
2017-12-12T07:09:56.180Z,986.45
2017-12-12T07:10:36.790Z,986.41
2017-12-12T07:11:17.452Z,986.45
2017-12-12T07:11:58.062Z,986.44
2017-12-12T07:12:38.621Z,986.5
2017-12-12T07:13:19.196Z,986.59
2017-12-12T07:13:59.768Z,986.6
2017-12-12T07:14:40.354Z,986.58
2017-12-12T07:15:20.933Z,986.63
2017-12-12T07:16:01.524Z,986.6
2017-12-12T07:16:42.117Z,986.6
2017-12-12T07:17:22.734Z,986.66
2017-12-12T07:18:03.317Z,986.68
2017-12-12T07:18:43.893Z,986.64
2017-12-12T07:19:24.424Z,986.61
2017-12-12T07:20:04.999Z,986.61
2017-12-12T07:20:45.582Z,986.6
2017-12-12T07:21:26.163Z,986.61
2017-12-12T07:22:06.778Z,986.72
2017-12-12T07:22:47.346Z,986.72
2017-12-12T07:23:27.929Z,986.73
2017-12-12T07:24:08.525Z,986.65
2017-12-12T07:24:49.202Z,986.76
2017-12-12T07:25:29.885Z,986.7
2017-12-12T07:26:10.440Z,986.74
2017-12-12T07:26:51.007Z,986.69
2017-12-12T07:27:31.632Z,986.75
2017-12-12T07:28:12.288Z,986.74
2017-12-12T07:28:52.839Z,986.72
2017-12-12T07:29:33.429Z,986.76
2017-12-12T07:30:14.000Z,986.89
2017-12-12T07:30:54.650Z,986.88
2017-12-12T07:31:35.213Z,986.87
2017-12-12T07:32:15.802Z,986.88
2017-12-12T07:32:56.342Z,986.84
2017-12-12T07:33:36.913Z,986.95
2017-12-12T07:34:17.482Z,986.83
2017-12-12T07:34:58.074Z,986.86
2017-12-12T07:35:38.651Z,986.96
2017-12-12T07:36:19.226Z,986.91
2017-12-12T07:36:59.786Z,986.92
2017-12-12T07:37:40.406Z,986.97
2017-12-12T07:38:20.970Z,987.05
2017-12-12T07:40:55.168Z,987.06
2017-12-12T07:41:35.739Z,987.01
2017-12-12T07:42:16.381Z,987.21
2017-12-12T07:42:57.180Z,987.15
2017-12-12T07:43:37.800Z,987.12
2017-12-12T07:44:18.355Z,987.13
2017-12-12T07:44:59.399Z,987.19
2017-12-12T07:45:40.007Z,987.21
2017-12-12T07:46:20.567Z,987.32
2017-12-12T07:47:01.207Z,987.27
2017-12-12T07:47:41.787Z,987.29
2017-12-12T07:48:22.400Z,987.31
2017-12-12T07:49:03.065Z,987.34
2017-12-12T07:49:43.602Z,987.29
2017-12-12T07:50:24.173Z,987.29
2017-12-12T07:51:04.746Z,987.3
2017-12-12T07:51:45.315Z,987.4
2017-12-12T07:52:25.867Z,987.37
2017-12-12T07:53:06.437Z,987.37
2017-12-12T07:53:47.007Z,987.38
2017-12-12T07:54:27.568Z,987.42
2017-12-12T07:55:08.146Z,987.28
2017-12-12T07:55:48.749Z,987.4
2017-12-12T07:56:29.319Z,987.4
2017-12-12T07:57:09.894Z,987.42
2017-12-12T07:57:50.471Z,987.44
2017-12-12T07:58:31.061Z,987.51
2017-12-12T07:59:11.624Z,987.53
2017-12-12T07:59:52.184Z,987.55
2017-12-12T08:00:32.758Z,987.58
2017-12-12T08:01:13.350Z,987.57
2017-12-12T08:01:53.944Z,987.6
2017-12-12T08:02:34.526Z,987.6
2017-12-12T08:03:15.123Z,987.65
2017-12-12T08:03:55.692Z,987.69
2017-12-12T08:04:36.321Z,987.68
2017-12-12T08:05:16.864Z,987.75
2017-12-12T08:05:57.441Z,987.66
2017-12-12T08:06:38.026Z,987.71
2017-12-12T08:07:18.613Z,987.71
2017-12-12T08:07:59.188Z,987.74
2017-12-12T08:08:39.753Z,987.83
2017-12-12T08:09:20.329Z,987.88
2017-12-12T08:10:00.917Z,987.85
2017-12-12T08:10:41.508Z,987.93
2017-12-12T08:11:22.072Z,987.88
2017-12-12T08:12:02.656Z,987.91
2017-12-12T08:12:43.241Z,987.89
2017-12-12T08:13:23.831Z,987.95
2017-12-12T08:14:04.402Z,987.98
2017-12-12T08:14:45.185Z,987.96
2017-12-12T08:15:25.767Z,987.98
2017-12-12T08:16:06.327Z,987.98
2017-12-12T08:16:46.914Z,988.07
2017-12-12T08:17:27.526Z,987.98
2017-12-12T08:18:08.101Z,988.01
2017-12-12T08:18:48.660Z,988.04
2017-12-12T08:19:29.246Z,988.02
2017-12-12T08:20:09.850Z,988.09
2017-12-12T08:20:50.446Z,988.12
2017-12-12T08:21:31.009Z,988.16
2017-12-12T08:22:11.600Z,988.24
2017-12-12T08:22:52.275Z,988.05
2017-12-12T08:23:32.827Z,988.2
2017-12-12T08:24:13.403Z,988.29
2017-12-12T08:24:53.974Z,988.28
2017-12-12T08:25:34.620Z,988.37
2017-12-12T08:26:15.230Z,988.29
2017-12-12T08:26:55.832Z,988.27
2017-12-12T08:27:36.394Z,988.41
2017-12-12T08:28:17.023Z,988.57
2017-12-12T08:28:57.611Z,988.69
2017-12-12T08:29:38.236Z,988.8
2017-12-12T08:30:18.802Z,988.75
2017-12-12T08:30:59.371Z,988.75
2017-12-12T08:31:39.966Z,988.85